createdAt,value
2022-09-12T00:04:31.261Z,0.95
2022-09-12T00:09:33.762Z,0.65
2022-09-12T00:14:36.701Z,1.00
2022-09-12T00:19:39.244Z,1.30
2022-09-12T00:24:41.753Z,1.00
2022-09-12T00:29:44.379Z,0.90
2022-09-12T00:34:46.877Z,1.10
2022-09-12T00:39:49.506Z,1.00
2022-09-12T00:44:53.838Z,1.23
2022-09-12T00:50:06.577Z,1.73
2022-09-12T00:55:17.817Z,1.50
2022-09-12T01:00:22.862Z,1.27
2022-09-12T01:05:26.183Z,1.80
2022-09-12T01:10:28.828Z,1.55
2022-09-12T01:15:31.712Z,2.10
2022-09-12T01:20:43.907Z,1.77
2022-09-12T01:26:07.535Z,1.15
2022-09-12T01:31:14.406Z,1.27
2022-09-12T01:36:49.625Z,1.08
2022-09-12T01:41:53.119Z,1.70
2022-09-12T01:47:30.903Z,1.00
2022-09-12T01:53:00.045Z,1.13
2022-09-12T01:58:11.055Z,1.30
2022-09-12T02:03:17.640Z,1.50
2022-09-12T02:08:27.189Z,2.00
2022-09-12T02:13:43.209Z,1.63
2022-09-12T02:18:47.763Z,1.85
2022-09-12T02:23:57.803Z,1.93
2022-09-12T02:29:00.292Z,2.63
2022-09-12T02:34:14.497Z,1.93
2022-09-12T02:39:21.349Z,2.53
2022-09-12T02:44:25.000Z,2.03
2022-09-12T02:49:27.739Z,1.60
2022-09-12T02:54:30.610Z,2.13
2022-09-12T02:59:33.146Z,2.47
2022-09-12T03:04:47.403Z,2.08
2022-09-12T03:09:59.028Z,2.17
2022-09-12T03:15:39.973Z,2.30
2022-09-12T03:21:17.297Z,2.30
2022-09-12T03:26:29.556Z,2.20
2022-09-12T03:31:32.050Z,1.73
2022-09-12T03:36:34.518Z,1.75
2022-09-12T03:41:37.323Z,1.87
2022-09-12T03:46:39.875Z,2.72
2022-09-12T03:51:43.387Z,3.03
2022-09-12T03:56:45.939Z,4.28
2022-09-12T04:01:48.503Z,3.33
2022-09-12T04:06:51.017Z,2.90
2022-09-12T04:11:53.504Z,3.25
2022-09-12T04:16:56.039Z,3.33
2022-09-12T04:21:58.716Z,3.70
2022-09-12T04:27:04.813Z,3.35
2022-09-12T04:32:09.735Z,2.77
2022-09-12T04:37:12.160Z,2.58
2022-09-12T04:42:14.641Z,2.13
2022-09-12T04:47:17.163Z,1.90
2022-09-12T04:52:19.726Z,1.85
2022-09-12T04:57:22.250Z,2.07
2022-09-12T05:02:24.824Z,2.05
2022-09-12T05:07:27.349Z,2.37
2022-09-12T05:12:31.073Z,2.72
2022-09-12T05:17:33.559Z,2.10
2022-09-12T05:22:36.009Z,2.83
2022-09-12T05:27:38.583Z,2.58
2022-09-12T05:32:41.030Z,3.03
2022-09-12T05:37:44.264Z,3.17
2022-09-12T05:42:46.772Z,2.75
2022-09-12T05:47:49.489Z,3.07
2022-09-12T05:52:51.996Z,3.10
2022-09-12T05:57:54.612Z,2.90
2022-09-12T06:02:57.162Z,3.00
2022-09-12T06:07:59.622Z,2.40
2022-09-12T06:13:03.712Z,2.20
2022-09-12T06:18:06.163Z,2.30
2022-09-12T06:23:08.641Z,1.58
2022-09-12T06:28:11.099Z,2.57
2022-09-12T06:33:13.580Z,1.50
2022-09-12T06:38:17.607Z,1.73
2022-09-12T06:43:20.098Z,1.60
2022-09-12T06:48:22.731Z,1.70
2022-09-12T06:53:26.741Z,2.00
2022-09-12T06:58:30.201Z,1.98
2022-09-12T07:03:33.253Z,2.53
2022-09-12T07:08:37.530Z,1.83
2022-09-12T07:13:41.081Z,1.92
2022-09-12T07:18:43.928Z,1.45
2022-09-12T07:23:46.970Z,1.70
2022-09-12T07:29:07.926Z,1.60
2022-09-12T07:34:20.137Z,1.67
2022-09-12T07:39:22.660Z,1.50
2022-09-12T07:44:26.993Z,2.30
2022-09-12T07:49:30.567Z,1.95
2022-09-12T07:54:35.740Z,2.00
2022-09-12T07:59:52.626Z,2.00
2022-09-12T08:04:55.567Z,1.75
2022-09-12T08:09:58.109Z,1.90
2022-09-12T08:15:00.698Z,1.85
2022-09-12T08:20:04.315Z,2.10
2022-09-12T08:25:07.220Z,2.37
2022-09-12T08:30:10.078Z,2.20
2022-09-12T08:35:12.858Z,2.25
2022-09-12T08:40:19.070Z,2.40
2022-09-12T08:45:30.054Z,2.70
2022-09-12T08:50:32.690Z,3.07
2022-09-12T08:55:46.574Z,2.50
2022-09-12T09:00:51.929Z,3.33
2022-09-12T09:06:00.205Z,2.53
2022-09-12T09:11:27.293Z,2.70
2022-09-12T09:16:36.882Z,3.20
2022-09-12T09:21:44.633Z,2.30
2022-09-12T09:27:14.346Z,2.67
2022-09-12T09:32:46.179Z,3.38
2022-09-12T09:38:07.704Z,3.67
2022-09-12T09:43:17.143Z,4.00
2022-09-12T09:48:23.518Z,4.03
2022-09-12T09:53:34.961Z,4.32
2022-09-12T09:58:37.626Z,3.93
2022-09-12T10:03:41.327Z,3.40
2022-09-12T10:08:43.865Z,3.05
2022-09-12T10:13:53.759Z,3.90
2022-09-12T10:19:01.641Z,3.28
2022-09-12T10:24:22.778Z,3.78
2022-09-12T10:29:33.377Z,3.13
2022-09-12T10:34:44.126Z,3.30
2022-09-12T10:39:57.192Z,3.40
2022-09-12T10:44:59.712Z,3.00
2022-09-12T10:50:24.239Z,3.10
2022-09-12T10:55:32.559Z,3.10
2022-09-12T11:00:40.262Z,2.57
2022-09-12T11:06:00.713Z,2.63
2022-09-12T11:11:06.366Z,2.60
2022-09-12T11:16:31.316Z,2.53
2022-09-12T11:22:10.784Z,2.42
2022-09-12T11:27:26.206Z,2.50
2022-09-12T11:32:47.612Z,2.70
2022-09-12T11:38:02.153Z,2.42
2022-09-12T11:43:17.685Z,2.40
2022-09-12T11:48:40.765Z,3.07
2022-09-12T11:53:46.155Z,2.20
2022-09-12T11:59:02.695Z,3.05
2022-09-12T12:04:16.790Z,2.85
2022-09-12T12:09:19.575Z,2.50
2022-09-12T12:14:31.169Z,2.40
2022-09-12T12:19:33.994Z,2.33
2022-09-12T12:24:55.194Z,2.47
2022-09-12T12:29:59.804Z,2.20
2022-09-12T12:35:15.565Z,2.35
2022-09-12T12:40:29.165Z,2.50
2022-09-12T12:45:32.762Z,2.73
2022-09-12T12:50:35.442Z,2.67
2022-09-12T12:55:44.101Z,2.50
2022-09-12T13:00:47.374Z,2.80
2022-09-12T13:05:51.894Z,2.40
2022-09-12T13:11:27.372Z,2.25
2022-09-12T13:16:39.994Z,2.23
2022-09-12T13:22:12.083Z,2.42
2022-09-12T13:27:18.819Z,2.90
2022-09-12T13:32:21.462Z,2.47
2022-09-12T13:38:02.400Z,2.70
2022-09-12T13:43:19.792Z,2.80
2022-09-12T13:48:25.451Z,2.57
2022-09-12T13:53:56.284Z,2.53
2022-09-12T13:59:00.976Z,1.90
2022-09-12T14:04:32.974Z,2.10
2022-09-12T14:09:45.344Z,2.22
2022-09-12T14:14:50.352Z,2.45
2022-09-12T14:19:52.908Z,2.17
2022-09-12T14:24:56.021Z,2.10
2022-09-12T14:30:22.426Z,2.50
2022-09-12T14:35:25.003Z,2.80
2022-09-12T14:40:27.598Z,2.20
2022-09-12T14:45:31.279Z,2.63
2022-09-12T14:50:36.358Z,2.50
2022-09-12T14:55:53.541Z,2.30
2022-09-12T15:01:08.437Z,2.20
2022-09-12T15:06:40.340Z,2.53
2022-09-12T15:11:42.799Z,1.93
2022-09-12T15:16:47.732Z,1.85
2022-09-12T15:21:50.185Z,2.20
2022-09-12T15:26:53.507Z,2.27
2022-09-12T15:31:56.235Z,1.95
2022-09-12T15:36:59.266Z,1.92
2022-09-12T15:42:01.754Z,2.03
2022-09-12T15:47:04.983Z,1.90
2022-09-12T15:52:09.719Z,2.13
2022-09-12T15:57:12.179Z,1.70
2022-09-12T16:02:14.595Z,1.88
2022-09-12T16:07:17.057Z,1.90
2022-09-12T16:12:19.626Z,2.20
2022-09-12T16:17:22.270Z,1.83
2022-09-12T16:22:24.840Z,1.50
2022-09-12T16:27:27.375Z,2.30
2022-09-12T16:32:30.085Z,1.63
2022-09-12T16:37:34.694Z,1.73
2022-09-12T16:42:40.732Z,2.13
2022-09-12T16:47:46.233Z,2.30
2022-09-12T16:52:48.788Z,1.93
2022-09-12T16:57:52.424Z,2.37
2022-09-12T17:02:54.984Z,2.00
2022-09-12T17:07:57.585Z,2.20
2022-09-12T17:13:00.244Z,1.80
2022-09-12T17:18:02.667Z,2.30
2022-09-12T17:23:09.761Z,1.90
2022-09-12T17:28:12.823Z,2.00
2022-09-12T17:33:15.536Z,2.33
2022-09-12T17:38:21.112Z,2.40
2022-09-12T17:43:32.934Z,2.50
2022-09-12T17:48:36.149Z,2.65
2022-09-12T17:53:38.627Z,2.73
2022-09-12T17:58:41.174Z,3.73
2022-09-12T18:03:43.631Z,3.58
2022-09-12T18:08:46.131Z,3.17
2022-09-12T18:13:48.699Z,2.80
2022-09-12T18:18:51.478Z,2.90
2022-09-12T18:23:55.088Z,2.90
2022-09-12T18:28:57.635Z,2.13
2022-09-12T18:34:01.051Z,3.10
2022-09-12T18:39:03.865Z,3.30
2022-09-12T18:44:06.908Z,2.65
2022-09-12T18:49:09.666Z,2.50
2022-09-12T18:54:14.018Z,2.00
2022-09-12T18:59:16.736Z,2.40
2022-09-12T19:04:19.363Z,2.38
2022-09-12T19:09:21.927Z,2.87
2022-09-12T19:14:26.737Z,2.72
2022-09-12T19:19:29.235Z,3.50
2022-09-12T19:24:31.775Z,3.90
2022-09-12T19:29:34.281Z,3.40
2022-09-12T19:34:36.735Z,3.37
2022-09-12T19:39:39.297Z,3.60
2022-09-12T19:44:41.941Z,3.45
2022-09-12T19:49:44.565Z,3.03
2022-09-12T19:54:47.025Z,2.53
2022-09-12T19:59:49.951Z,2.83
2022-09-12T20:04:52.474Z,3.47
2022-09-12T20:09:55.318Z,3.08
2022-09-12T20:14:58.677Z,3.15
2022-09-12T20:20:01.481Z,3.03
2022-09-12T20:25:04.883Z,2.22
2022-09-12T20:30:08.610Z,2.40
2022-09-12T20:35:11.424Z,2.23
2022-09-12T20:40:13.916Z,2.15
2022-09-12T20:45:16.475Z,2.20
2022-09-12T20:50:18.986Z,2.50
2022-09-12T20:55:21.467Z,2.17
2022-09-12T21:00:23.954Z,3.10
2022-09-12T21:05:26.388Z,2.63
2022-09-12T21:10:29.715Z,2.63
2022-09-12T21:15:32.286Z,2.73
2022-09-12T21:20:35.151Z,4.10
2022-09-12T21:25:37.671Z,2.70
2022-09-12T21:30:40.181Z,3.42
2022-09-12T21:35:42.641Z,3.92
2022-09-12T21:40:45.561Z,3.03
2022-09-12T21:45:48.521Z,2.67
2022-09-12T21:50:51.766Z,3.57
2022-09-12T21:55:54.296Z,2.97
2022-09-12T22:00:57.095Z,3.08
2022-09-12T22:06:04.262Z,2.20
2022-09-12T22:11:09.789Z,2.90
2022-09-12T22:16:12.986Z,2.78
2022-09-12T22:21:17.819Z,3.40
2022-09-12T22:26:20.552Z,3.38
2022-09-12T22:31:23.784Z,2.73
2022-09-12T22:36:30.444Z,3.70
2022-09-12T22:41:33.769Z,3.80
2022-09-12T22:46:36.525Z,3.90
2022-09-12T22:51:39.160Z,3.10
2022-09-12T22:56:41.833Z,4.13
2022-09-12T23:01:44.277Z,3.63
2022-09-12T23:06:47.000Z,3.38
2022-09-12T23:11:49.447Z,3.63
2022-09-12T23:16:51.946Z,3.15
2022-09-12T23:21:54.562Z,3.60
2022-09-12T23:26:57.207Z,2.75
2022-09-12T23:31:59.656Z,3.78
2022-09-12T23:37:02.155Z,2.90
2022-09-12T23:42:04.783Z,3.60
2022-09-12T23:47:07.626Z,4.30
2022-09-12T23:52:10.059Z,3.42
2022-09-12T23:57:12.514Z,3.38
